Lively, Canada
Current Conditions -  °F | °C
As of 9:00 AM on Thursday 30 Oct 2014 (Local Time) from CYSB Reporting Station
Broken Clouds Broken Clouds  
Wind Chill: 30°   Ceiling: 2500
Heat Index: 30°   Visibility: 20mi
Dew Point: 28°   Wind: 2mph
Humidity: 93%   Direction: 270°W
Pressure: 30.04"   Gusts: NA
Location:  46.44°N, 81.15°W
Report Text: CYSB 301300Z 27002KT 20SM BKN025 BKN080 M01/M02 A3004 RMK SC5AC2 SLP189
Loading
Personal Weather Stations






























Interactive Weather Map
Tropical Storm Tracking
New forecast layout! Learn more

10-Day Weather Forecast

Advertisements
Track Severe Weather on mobile